KLTS/LTS METAR and TAF weather

Enter ICAO airport designator
Station Type Date Time Source
KLTS METAR 2021/07/26 16:56 UTC NOAA

KLTS 261656Z 00000KT 10SM -RA SCT100 BKN130 27/21 A3002 RMK AO2A DZB14E17RAB17E39DZB39E42DZB42E42DZB45E48RAB48 SLP151 P0001 T02690212 $


Station Type Date Time Source
KLTS Decoded METAR 2021/07/26 16:56 UTC NOAA

Altus Air Force Base, OK, United States (KLTS) 34-39N 099-16W 420M
Jul 26, 2021 - 12:56 PM EDT / 2021.07.26 1656 UTC
Wind: Calm:0
Visibility: 10 mile(s):0
Sky conditions: mostly cloudy
Weather: light rain
Precipitation last hour: 0.01 inches
Temperature: 80.4 F (26.9 C)
Dew Point: 70.2 F (21.2 C)
Relative Humidity: 71%
Pressure (altimeter): 30.02 in. Hg (1016 hPa)
ob: KLTS 261656Z 00000KT 10SM -RA SCT100 BKN130 27/21 A3002 RMK AO2A DZB14E17RAB17E39DZB39E42DZB42E42DZB45E48RAB48 SLP151 P0001 T02690212
cycle: 17

Station Type Date Time Source
KLTS TAF 2021/07/26 17:06 UTC NOAA

TAF KLTS 261702Z 2617/2723 14006KT 9000 -SHRA BKN070 BKN120 QNH2998INS
BECMG 2617/2618 14012KT 9999 NSW SCT070 BKN120 QNH2989INS
BECMG 2702/2703 VRB06KT 9999 SCT080 QNH2992INS
BECMG 2714/2715 14009KT 9999 SKC QNH2990INS TX35/2621Z TN24/2712Z

Example: see airport list